createdAt,value
2023-02-11T00:00:17.690Z,-4.12
2023-02-11T00:01:17.499Z,-4.12
2023-02-11T00:01:51.397Z,-4.12
2023-02-11T00:02:28.077Z,-4.12
2023-02-11T00:03:01.978Z,-4.11
2023-02-11T00:03:36.221Z,-4.08
2023-02-11T00:04:10.794Z,-4.09
2023-02-11T00:04:44.069Z,-4.09
2023-02-11T00:05:17.673Z,-4.07
2023-02-11T00:06:01.672Z,-4.06
2023-02-11T00:06:35.923Z,-4.04
2023-02-11T00:07:09.126Z,-4.05
2023-02-11T00:07:42.479Z,-4.05
2023-02-11T00:08:17.207Z,-4.02
2023-02-11T00:08:50.578Z,-3.90
2023-02-11T00:09:24.064Z,-3.81
2023-02-11T00:09:57.452Z,-3.87
2023-02-11T00:10:30.707Z,-3.92
2023-02-11T00:11:05.481Z,-3.91
2023-02-11T00:11:38.734Z,-3.88
2023-02-11T00:12:12.021Z,-3.91
2023-02-11T00:12:45.278Z,-3.93
2023-02-11T00:13:18.471Z,-3.95
2023-02-11T00:13:51.820Z,-3.95
2023-02-11T00:14:25.260Z,-3.97
2023-02-11T00:14:58.637Z,-3.96
2023-02-11T00:15:32.077Z,-3.95
2023-02-11T00:16:14.262Z,-3.98
2023-02-11T00:16:47.411Z,-4.01
2023-02-11T00:17:21.025Z,-4.01
2023-02-11T00:17:54.323Z,-3.98
2023-02-11T00:18:28.130Z,-3.96
2023-02-11T00:19:03.232Z,-3.97
2023-02-11T00:19:40.103Z,-3.92
2023-02-11T00:20:13.485Z,-3.97
2023-02-11T00:20:47.005Z,-3.96
2023-02-11T00:21:22.858Z,-3.96
2023-02-11T00:21:56.140Z,-3.90
2023-02-11T00:22:29.426Z,-3.89
2023-02-11T00:23:02.608Z,-3.88
2023-02-11T00:23:36.656Z,-3.88
2023-02-11T00:24:09.952Z,-3.86
2023-02-11T00:24:43.430Z,-3.86
2023-02-11T00:25:16.701Z,-3.85
2023-02-11T00:25:50.281Z,-3.82
2023-02-11T00:26:26.884Z,-3.75
2023-02-11T00:27:00.304Z,-3.62
2023-02-11T00:27:33.543Z,-3.63
2023-02-11T00:28:07.067Z,-3.64
2023-02-11T00:28:41.362Z,-3.65
2023-02-11T00:29:15.577Z,-3.64
2023-02-11T00:29:48.854Z,-3.62
2023-02-11T00:30:22.271Z,-3.60
2023-02-11T00:30:56.800Z,-3.57
2023-02-11T00:31:30.311Z,-3.57
2023-02-11T00:32:05.481Z,-3.51
2023-02-11T00:32:38.778Z,-3.37
2023-02-11T00:33:11.979Z,-3.41
2023-02-11T00:33:45.787Z,-3.42
2023-02-11T00:34:19.137Z,-3.40
2023-02-11T00:34:53.718Z,-3.38
2023-02-11T00:35:27.067Z,-3.39
2023-02-11T00:36:07.987Z,-3.39
2023-02-11T00:36:41.293Z,-3.39
2023-02-11T00:37:14.576Z,-3.34
2023-02-11T00:37:48.295Z,-3.34
2023-02-11T00:38:21.500Z,-3.34
2023-02-11T00:38:56.808Z,-3.34
2023-02-11T00:39:30.733Z,-3.24
2023-02-11T00:40:06.833Z,-3.24
2023-02-11T00:40:40.113Z,-3.27
2023-02-11T00:41:14.287Z,-3.28
2023-02-11T00:41:47.592Z,-3.26
2023-02-11T00:42:20.829Z,-3.26
2023-02-11T00:42:54.070Z,-3.26
2023-02-11T00:43:27.456Z,-3.25
2023-02-11T00:44:01.563Z,-3.24
2023-02-11T00:44:35.040Z,-3.23
2023-02-11T00:45:10.233Z,-3.23
2023-02-11T00:45:43.451Z,-3.25
2023-02-11T00:46:17.138Z,-3.26
2023-02-11T00:46:50.755Z,-3.28
2023-02-11T00:47:26.919Z,-3.23
2023-02-11T00:48:00.392Z,-3.25
2023-02-11T00:48:35.059Z,-3.25
2023-02-11T00:49:08.407Z,-3.25
2023-02-11T00:49:41.821Z,-3.25
2023-02-11T00:50:15.568Z,-3.25
2023-02-11T00:50:48.875Z,-3.24
2023-02-11T00:51:22.274Z,-3.21
2023-02-11T00:51:55.547Z,-3.21
2023-02-11T00:52:28.746Z,-3.23
2023-02-11T00:53:02.776Z,-3.22
2023-02-11T00:53:37.148Z,-3.22
2023-02-11T00:54:10.648Z,-3.23
2023-02-11T00:54:45.350Z,-3.23
2023-02-11T00:55:18.896Z,-3.22
2023-02-11T00:55:52.410Z,-3.21
2023-02-11T00:56:25.877Z,-3.19
2023-02-11T00:56:59.388Z,-3.20
2023-02-11T00:57:32.805Z,-3.20
2023-02-11T00:58:06.394Z,-3.19
2023-02-11T00:58:39.769Z,-3.18
2023-02-11T00:59:13.023Z,-3.17
2023-02-11T00:59:46.183Z,-3.18
2023-02-11T01:00:19.504Z,-3.17
2023-02-11T01:00:54.344Z,-3.20
2023-02-11T01:01:27.802Z,-3.21
2023-02-11T01:02:01.159Z,-3.21
2023-02-11T01:02:34.683Z,-3.22
2023-02-11T01:03:08.092Z,-3.24
2023-02-11T01:03:41.829Z,-3.23
2023-02-11T01:04:15.236Z,-3.24
2023-02-11T01:04:48.606Z,-3.23
2023-02-11T01:05:22.077Z,-3.24
2023-02-11T01:05:55.963Z,-3.24
2023-02-11T01:06:29.323Z,-3.26
2023-02-11T01:07:02.545Z,-3.23
2023-02-11T01:07:36.158Z,-3.22
2023-02-11T01:08:09.480Z,-3.22
2023-02-11T01:08:43.593Z,-3.22
2023-02-11T01:09:18.444Z,-3.23
2023-02-11T01:09:54.689Z,-3.25
2023-02-11T01:10:29.485Z,-3.27
2023-02-11T01:11:05.983Z,-3.29
2023-02-11T01:11:39.412Z,-3.31
2023-02-11T01:12:13.446Z,-3.35
2023-02-11T01:12:47.358Z,-3.41
2023-02-11T01:13:20.685Z,-3.47
2023-02-11T01:13:54.135Z,-3.51
2023-02-11T01:14:28.748Z,-3.53
2023-02-11T01:15:02.201Z,-3.55
2023-02-11T01:15:36.290Z,-3.58
2023-02-11T01:16:11.098Z,-3.61
2023-02-11T01:16:44.643Z,-3.61
2023-02-11T01:17:17.984Z,-3.64
2023-02-11T01:17:51.340Z,-3.67
2023-02-11T01:18:25.217Z,-3.70
2023-02-11T01:18:59.080Z,-3.67
2023-02-11T01:19:32.448Z,-3.70
2023-02-11T01:20:08.453Z,-3.71
2023-02-11T01:20:41.789Z,-3.72
2023-02-11T01:21:15.211Z,-3.75
2023-02-11T01:21:49.876Z,-3.75
2023-02-11T01:22:23.349Z,-3.76
2023-02-11T01:22:56.595Z,-3.77
2023-02-11T01:23:29.951Z,-3.78
2023-02-11T01:24:03.749Z,-3.76
2023-02-11T01:24:37.089Z,-3.76
2023-02-11T01:25:11.216Z,-3.76
2023-02-11T01:25:44.639Z,-3.72
2023-02-11T01:26:17.838Z,-3.72
2023-02-11T01:26:51.261Z,-3.57
2023-02-11T01:27:24.515Z,-3.44
2023-02-11T01:27:57.909Z,-3.39
2023-02-11T01:28:31.889Z,-3.48
2023-02-11T01:29:06.486Z,-3.48
2023-02-11T01:29:39.756Z,-3.50
2023-02-11T01:30:14.958Z,-3.50
2023-02-11T01:30:48.589Z,-3.42
2023-02-11T01:31:21.869Z,-3.39
2023-02-11T01:31:55.261Z,-3.37
2023-02-11T01:32:28.488Z,-3.37
2023-02-11T01:33:01.818Z,-3.28
2023-02-11T01:33:36.562Z,-3.24
2023-02-11T01:34:11.891Z,-3.24
2023-02-11T01:34:45.034Z,-3.23
2023-02-11T01:35:19.520Z,-3.25
2023-02-11T01:35:53.141Z,-3.20
2023-02-11T01:36:26.660Z,-3.15
2023-02-11T01:37:00.059Z,-3.07
2023-02-11T01:37:36.346Z,-3.10
2023-02-11T01:38:19.946Z,-3.11
2023-02-11T01:38:53.304Z,-3.12
2023-02-11T01:39:27.603Z,-3.10
2023-02-11T01:40:02.697Z,-3.08
2023-02-11T01:40:36.266Z,-3.09
2023-02-11T01:41:12.985Z,-3.04
2023-02-11T01:41:46.274Z,-3.02
2023-02-11T01:42:22.272Z,-2.99
2023-02-11T01:42:55.625Z,-3.01
2023-02-11T01:43:33.820Z,-2.99
2023-02-11T01:44:33.322Z,-3.00
2023-02-11T01:45:44.704Z,-3.02
2023-02-11T01:46:37.177Z,-3.03
2023-02-11T01:47:10.649Z,-3.04
2023-02-11T01:47:43.931Z,-2.98
2023-02-11T01:48:23.166Z,-2.94
2023-02-11T01:49:17.093Z,-2.93
2023-02-11T01:49:57.950Z,-2.93
2023-02-11T01:50:31.595Z,-2.95
2023-02-11T01:51:32.789Z,-2.95
2023-02-11T01:52:12.561Z,-2.97
2023-02-11T01:52:48.032Z,-2.97
2023-02-11T01:53:40.888Z,-3.00
2023-02-11T01:54:37.091Z,-3.01
2023-02-11T01:55:32.376Z,-2.97
2023-02-11T01:56:26.067Z,-2.99
2023-02-11T01:57:19.830Z,-3.02
2023-02-11T01:57:57.374Z,-3.05
2023-02-11T01:58:33.800Z,-3.06
2023-02-11T01:59:13.536Z,-3.06
2023-02-11T01:59:55.000Z,-3.07
2023-02-11T02:00:36.758Z,-3.09
2023-02-11T02:01:13.406Z,-3.10
2023-02-11T02:01:53.446Z,-3.17
2023-02-11T02:02:45.195Z,-3.29
2023-02-11T02:03:22.906Z,-3.28
2023-02-11T02:04:02.140Z,-3.30
2023-02-11T02:04:42.565Z,-3.32
2023-02-11T02:05:24.730Z,-3.37
2023-02-11T02:06:06.771Z,-3.43
2023-02-11T02:06:59.489Z,-3.46
2023-02-11T02:07:39.242Z,-3.52
2023-02-11T02:08:29.700Z,-3.57
2023-02-11T02:09:11.616Z,-3.61
2023-02-11T02:09:53.066Z,-3.63
2023-02-11T02:10:28.506Z,-3.63
2023-02-11T02:11:02.589Z,-3.67
2023-02-11T02:11:37.505Z,-3.69
2023-02-11T02:12:10.760Z,-3.70
2023-02-11T02:12:44.183Z,-3.70
2023-02-11T02:13:17.552Z,-3.75
2023-02-11T02:13:50.818Z,-3.75
2023-02-11T02:14:26.990Z,-3.73
2023-02-11T02:15:20.704Z,-3.75
2023-02-11T02:16:07.729Z,-3.75
2023-02-11T02:16:42.747Z,-3.79
2023-02-11T02:17:42.210Z,-3.74
2023-02-11T02:18:42.694Z,-3.72
2023-02-11T02:19:46.340Z,-3.71
2023-02-11T02:20:58.378Z,-3.69
2023-02-11T02:21:49.546Z,-3.68
2023-02-11T02:22:22.707Z,-3.66
2023-02-11T02:23:15.049Z,-3.64
2023-02-11T02:24:00.361Z,-3.65
2023-02-11T02:25:11.557Z,-3.64
2023-02-11T02:26:22.584Z,-3.66
2023-02-11T02:27:11.022Z,-3.64
2023-02-11T02:27:57.066Z,-3.64
2023-02-11T02:28:38.863Z,-3.62
2023-02-11T02:29:35.335Z,-3.60
2023-02-11T02:30:23.473Z,-3.58
2023-02-11T02:31:25.803Z,-3.54
2023-02-11T02:32:41.009Z,-3.54
2023-02-11T02:33:22.479Z,-3.51
2023-02-11T02:34:02.655Z,-3.49
2023-02-11T02:34:56.452Z,-3.45
2023-02-11T02:35:35.407Z,-3.42
2023-02-11T02:36:28.610Z,-3.38
2023-02-11T02:37:31.378Z,-3.43
2023-02-11T02:38:17.913Z,-3.38
2023-02-11T02:38:57.505Z,-3.32
2023-02-11T02:39:36.509Z,-3.26
2023-02-11T02:40:17.114Z,-3.23
2023-02-11T02:40:56.295Z,-3.24
2023-02-11T02:41:33.385Z,-3.18
2023-02-11T02:42:07.450Z,-3.16
2023-02-11T02:42:42.405Z,-3.24
2023-02-11T02:43:17.202Z,-3.14
2023-02-11T02:43:52.125Z,-3.16
2023-02-11T02:44:26.197Z,-3.06
2023-02-11T02:44:59.611Z,-3.00
2023-02-11T02:45:33.698Z,-3.00
2023-02-11T02:46:18.355Z,-2.96
2023-02-11T02:46:52.006Z,-2.95
2023-02-11T02:47:25.287Z,-2.93
2023-02-11T02:47:58.621Z,-2.87
2023-02-11T02:48:35.029Z,-2.89
2023-02-11T02:50:45.086Z,-2.83
2023-02-11T02:51:33.314Z,-2.88
2023-02-11T02:52:19.612Z,-2.87
2023-02-11T02:53:42.692Z,-2.85
2023-02-11T02:54:38.328Z,-2.88
2023-02-11T02:55:34.527Z,-2.88
2023-02-11T02:56:31.202Z,-2.88
2023-02-11T02:58:00.327Z,-2.84
2023-02-11T02:58:49.358Z,-2.85
2023-02-11T02:59:34.889Z,-2.84
2023-02-11T03:00:30.235Z,-2.83
2023-02-11T03:01:42.511Z,-2.78
2023-02-11T03:02:27.382Z,-2.80
2023-02-11T03:03:28.013Z,-2.78
2023-02-11T03:04:53.083Z,-2.81
2023-02-11T03:06:02.657Z,-2.70
2023-02-11T03:06:56.462Z,-2.67
2023-02-11T03:07:40.104Z,-2.67
2023-02-11T03:08:30.852Z,-2.64
2023-02-11T03:09:16.170Z,-2.61
2023-02-11T03:09:58.662Z,-2.56
2023-02-11T03:10:37.914Z,-2.48
2023-02-11T03:11:14.971Z,-2.45
2023-02-11T03:11:48.828Z,-2.42
2023-02-11T03:12:23.756Z,-2.44
2023-02-11T03:12:58.327Z,-2.42
2023-02-11T03:13:35.598Z,-2.34
2023-02-11T03:14:13.726Z,-2.34
2023-02-11T03:14:50.487Z,-2.29
2023-02-11T03:15:27.669Z,-2.28
2023-02-11T03:16:11.751Z,-2.27
2023-02-11T03:16:46.636Z,-2.31
2023-02-11T03:17:21.127Z,-2.30
2023-02-11T03:17:59.066Z,-2.30
2023-02-11T03:18:36.226Z,-2.30
2023-02-11T03:19:37.829Z,-2.31
2023-02-11T03:20:14.806Z,-2.34
2023-02-11T03:20:52.124Z,-2.34
2023-02-11T03:21:26.340Z,-2.34
2023-02-11T03:22:07.700Z,-2.32
2023-02-11T03:22:53.108Z,-2.30
2023-02-11T03:23:41.381Z,-2.32
2023-02-11T03:24:37.071Z,-2.33
2023-02-11T03:25:10.724Z,-2.30
2023-02-11T03:25:53.549Z,-2.29
2023-02-11T03:26:34.426Z,-2.30
2023-02-11T03:27:47.760Z,-2.32
2023-02-11T03:28:35.950Z,-2.43
2023-02-11T03:29:55.754Z,-2.35
2023-02-11T03:30:39.232Z,-2.35
2023-02-11T03:31:57.703Z,-2.33
2023-02-11T03:32:37.448Z,-2.34
2023-02-11T03:33:27.670Z,-2.30
2023-02-11T03:34:41.453Z,-2.33
2023-02-11T03:35:18.418Z,-2.28
2023-02-11T03:35:57.502Z,-2.28
2023-02-11T03:36:51.284Z,-2.28
2023-02-11T03:37:32.945Z,-2.28
2023-02-11T03:38:34.433Z,-2.25
2023-02-11T03:39:11.274Z,-2.29
2023-02-11T03:40:03.621Z,-2.27
2023-02-11T03:40:39.755Z,-2.29
2023-02-11T03:41:16.526Z,-2.28
2023-02-11T03:41:51.852Z,-2.22
2023-02-11T03:42:30.413Z,-2.19
2023-02-11T03:43:10.504Z,-2.18
2023-02-11T03:43:51.116Z,-2.21
2023-02-11T03:44:30.987Z,-2.23
2023-02-11T03:45:09.267Z,-2.20
2023-02-11T03:45:44.710Z,-2.20
2023-02-11T03:46:21.872Z,-2.17
2023-02-11T03:46:56.219Z,-2.18
2023-02-11T03:47:32.432Z,-2.17
2023-02-11T03:48:14.934Z,-2.16
2023-02-11T03:48:56.758Z,-2.16
2023-02-11T03:49:32.613Z,-2.18
2023-02-11T03:50:10.134Z,-2.16
2023-02-11T03:50:46.555Z,-2.15
2023-02-11T03:51:23.112Z,-2.14
2023-02-11T03:51:58.658Z,-2.14
2023-02-11T03:52:34.206Z,-2.13
2023-02-11T03:53:10.816Z,-2.11
2023-02-11T03:53:46.902Z,-2.14
2023-02-11T03:54:31.092Z,-2.11
2023-02-11T03:55:11.360Z,-2.10
2023-02-11T03:55:47.605Z,-2.12
2023-02-11T03:56:27.220Z,-2.11
2023-02-11T03:57:02.636Z,-2.10
2023-02-11T03:57:36.597Z,-2.10
2023-02-11T03:58:10.375Z,-2.10
2023-02-11T03:58:46.619Z,-2.10
2023-02-11T03:59:20.115Z,-2.09
2023-02-11T03:59:58.747Z,-2.09
2023-02-11T04:00:35.170Z,-2.09
2023-02-11T04:01:10.032Z,-2.10
2023-02-11T04:01:43.735Z,-2.10
2023-02-11T04:02:17.217Z,-2.10
2023-02-11T04:02:50.589Z,-2.08
2023-02-11T04:03:24.356Z,-2.04
2023-02-11T04:03:57.790Z,-1.98
2023-02-11T04:04:31.158Z,-2.01
2023-02-11T04:05:06.943Z,-2.03
2023-02-11T04:05:40.393Z,-2.04
2023-02-11T04:06:13.922Z,-2.03
2023-02-11T04:06:47.502Z,-2.03
2023-02-11T04:07:21.200Z,-2.03
2023-02-11T04:07:54.478Z,-2.04
2023-02-11T04:08:27.871Z,-2.04
2023-02-11T04:09:01.392Z,-2.04
2023-02-11T04:09:37.211Z,-2.06
2023-02-11T04:10:12.485Z,-2.05
2023-02-11T04:10:45.824Z,-2.08
2023-02-11T04:11:19.252Z,-2.07
2023-02-11T04:11:52.570Z,-2.02
2023-02-11T04:12:26.823Z,-1.96
2023-02-11T04:13:00.252Z,-1.98
2023-02-11T04:13:34.238Z,-2.03
2023-02-11T04:14:07.795Z,-2.03
2023-02-11T04:14:41.363Z,-2.02
2023-02-11T04:15:14.841Z,-2.03
2023-02-11T04:15:49.143Z,-2.05
2023-02-11T04:16:23.041Z,-2.03
2023-02-11T04:16:56.837Z,-2.02
2023-02-11T04:17:30.805Z,-2.00
2023-02-11T04:18:04.793Z,-2.03
2023-02-11T04:18:38.582Z,-2.00
2023-02-11T04:19:12.068Z,-2.02
2023-02-11T04:19:45.686Z,-2.03
2023-02-11T04:20:19.590Z,-2.02
2023-02-11T04:20:52.958Z,-2.03
2023-02-11T04:21:26.538Z,-2.03
2023-02-11T04:22:00.707Z,-2.03
2023-02-11T04:22:34.474Z,-2.05
2023-02-11T04:23:07.924Z,-2.03
2023-02-11T04:23:41.500Z,-2.03
2023-02-11T04:24:14.995Z,-2.03
2023-02-11T04:24:48.438Z,-2.05
2023-02-11T04:25:21.962Z,-2.06
2023-02-11T04:25:55.525Z,-2.07
2023-02-11T04:26:28.969Z,-2.08
2023-02-11T04:27:02.700Z,-2.08
2023-02-11T04:27:37.176Z,-2.07
2023-02-11T04:28:10.680Z,-2.03
2023-02-11T04:28:44.012Z,-2.04
2023-02-11T04:29:17.527Z,-2.08
2023-02-11T04:29:51.295Z,-2.10
2023-02-11T04:30:24.901Z,-2.10
2023-02-11T04:31:04.894Z,-2.10
2023-02-11T04:31:41.070Z,-2.11
2023-02-11T04:32:14.648Z,-2.14
2023-02-11T04:32:48.408Z,-2.12
2023-02-11T04:33:22.317Z,-2.14
2023-02-11T04:33:56.792Z,-2.13
2023-02-11T04:34:30.409Z,-2.15
2023-02-11T04:35:04.397Z,-2.17
2023-02-11T04:35:37.939Z,-2.20
2023-02-11T04:36:11.563Z,-2.18
2023-02-11T04:36:45.152Z,-2.23
2023-02-11T04:37:18.554Z,-2.21
2023-02-11T04:37:52.006Z,-2.21
2023-02-11T04:38:26.052Z,-2.21
2023-02-11T04:38:59.479Z,-2.21
2023-02-11T04:39:33.084Z,-2.21
2023-02-11T04:40:07.160Z,-2.21
2023-02-11T04:40:41.443Z,-2.21
2023-02-11T04:41:14.906Z,-2.21
2023-02-11T04:41:48.362Z,-2.18
2023-02-11T04:42:21.782Z,-2.17
2023-02-11T04:42:55.121Z,-2.17
2023-02-11T04:43:29.165Z,-2.15
2023-02-11T04:44:02.706Z,-2.11
2023-02-11T04:44:36.217Z,-2.13
2023-02-11T04:45:09.915Z,-2.15
2023-02-11T04:45:43.324Z,-2.13
2023-02-11T04:46:16.824Z,-2.08
2023-02-11T04:46:50.361Z,-2.14
2023-02-11T04:47:23.813Z,-2.24
2023-02-11T04:47:57.297Z,-2.23
2023-02-11T04:48:30.797Z,-2.23
2023-02-11T04:49:04.360Z,-2.23
2023-02-11T04:49:38.086Z,-2.22
2023-02-11T04:50:11.646Z,-2.23
2023-02-11T04:50:45.014Z,-2.21
2023-02-11T04:51:18.421Z,-2.16
2023-02-11T04:51:51.913Z,-2.26
2023-02-11T04:52:25.458Z,-2.26
2023-02-11T04:52:58.922Z,-2.28
2023-02-11T04:53:32.525Z,-2.30
2023-02-11T04:54:06.161Z,-2.29
2023-02-11T04:54:39.922Z,-2.28
2023-02-11T04:55:13.761Z,-2.29
2023-02-11T04:55:51.003Z,-2.32
2023-02-11T04:56:24.833Z,-2.34
2023-02-11T04:56:58.422Z,-2.32
2023-02-11T04:57:31.828Z,-2.33
2023-02-11T04:58:05.370Z,-2.33
2023-02-11T04:58:38.811Z,-2.32
2023-02-11T04:59:13.527Z,-2.32
2023-02-11T04:59:46.975Z,-2.32
2023-02-11T05:00:20.882Z,-2.23
2023-02-11T05:00:55.181Z,-2.33
2023-02-11T05:01:28.804Z,-2.38
2023-02-11T05:02:02.481Z,-2.37
2023-02-11T05:02:36.343Z,-2.39
2023-02-11T05:03:10.406Z,-2.36
2023-02-11T05:03:44.137Z,-2.37
2023-02-11T05:04:17.708Z,-2.38
2023-02-11T05:04:51.076Z,-2.36
2023-02-11T05:05:25.051Z,-2.34
2023-02-11T05:05:58.657Z,-2.34
2023-02-11T05:06:32.088Z,-2.33
2023-02-11T05:07:05.575Z,-2.33
2023-02-11T05:07:39.254Z,-2.32
2023-02-11T05:08:12.854Z,-2.32
2023-02-11T05:08:46.384Z,-2.31
2023-02-11T05:09:19.965Z,-2.34
2023-02-11T05:09:53.466Z,-2.32
2023-02-11T05:10:27.440Z,-2.30
2023-02-11T05:11:02.553Z,-2.26
2023-02-11T05:11:36.975Z,-2.24
2023-02-11T05:12:10.599Z,-2.25
2023-02-11T05:12:44.008Z,-2.26
2023-02-11T05:13:17.557Z,-2.22
2023-02-11T05:13:51.436Z,-2.17
2023-02-11T05:14:24.849Z,-2.11
2023-02-11T05:14:58.323Z,-2.16
2023-02-11T05:15:31.769Z,-2.18
2023-02-11T05:16:05.629Z,-2.12
2023-02-11T05:16:39.192Z,-2.13
2023-02-11T05:17:12.708Z,-2.14
2023-02-11T05:17:46.419Z,-2.13
2023-02-11T05:18:19.841Z,-2.11
2023-02-11T05:18:55.746Z,-2.10
2023-02-11T05:19:29.630Z,-2.11
2023-02-11T05:20:03.394Z,-2.11
2023-02-11T05:20:39.616Z,-2.12
2023-02-11T05:21:17.293Z,-2.06
2023-02-11T05:22:02.135Z,-2.00
2023-02-11T05:22:36.434Z,-2.05
2023-02-11T05:23:10.566Z,-2.06
2023-02-11T05:23:44.842Z,-2.05
2023-02-11T05:24:18.308Z,-2.04
2023-02-11T05:24:51.786Z,-2.02
2023-02-11T05:25:25.078Z,-1.99
2023-02-11T05:25:58.411Z,-1.93
2023-02-11T05:26:32.807Z,-1.97
2023-02-11T05:27:06.310Z,-1.99
2023-02-11T05:27:39.739Z,-2.01
2023-02-11T05:28:13.202Z,-2.03
2023-02-11T05:28:46.903Z,-2.02
2023-02-11T05:29:20.552Z,-2.03
2023-02-11T05:29:53.996Z,-2.01
2023-02-11T05:30:27.662Z,-2.01
2023-02-11T05:31:01.997Z,-1.99
2023-02-11T05:31:35.528Z,-1.98
2023-02-11T05:32:09.307Z,-1.97
2023-02-11T05:32:42.745Z,-1.98
2023-02-11T05:33:16.145Z,-1.98
2023-02-11T05:33:49.741Z,-1.94
2023-02-11T05:34:23.518Z,-1.98
2023-02-11T05:34:57.910Z,-2.01
2023-02-11T05:35:31.694Z,-1.95
2023-02-11T05:36:08.870Z,-1.90
2023-02-11T05:36:42.279Z,-1.99
2023-02-11T05:37:17.683Z,-2.01
2023-02-11T05:37:51.133Z,-1.97
2023-02-11T05:38:24.578Z,-1.98
2023-02-11T05:38:58.199Z,-1.98
2023-02-11T05:39:31.635Z,-1.89
2023-02-11T05:40:05.880Z,-1.80
2023-02-11T05:40:39.500Z,-1.84
2023-02-11T05:41:13.482Z,-1.84
2023-02-11T05:41:47.104Z,-1.88
2023-02-11T05:42:20.576Z,-1.89
2023-02-11T05:42:54.023Z,-1.92
2023-02-11T05:43:27.952Z,-1.92
2023-02-11T05:44:01.488Z,-1.90
2023-02-11T05:44:35.450Z,-1.91
2023-02-11T05:45:09.520Z,-1.90
2023-02-11T05:45:43.089Z,-1.87
2023-02-11T05:46:17.109Z,-1.87
2023-02-11T05:46:50.568Z,-1.86
2023-02-11T05:47:24.633Z,-1.85
2023-02-11T05:47:58.383Z,-1.89
2023-02-11T05:48:32.543Z,-1.91
2023-02-11T05:49:06.050Z,-1.91
2023-02-11T05:49:39.536Z,-1.87
2023-02-11T05:50:13.004Z,-1.83
2023-02-11T05:50:46.429Z,-1.85
2023-02-11T05:51:20.170Z,-1.82
2023-02-11T05:51:53.607Z,-1.84
2023-02-11T05:52:27.076Z,-1.79
2023-02-11T05:53:00.763Z,-1.81
2023-02-11T05:53:34.828Z,-1.79
2023-02-11T05:54:08.376Z,-1.83
2023-02-11T05:54:41.823Z,-1.83
2023-02-11T05:55:15.487Z,-1.81
2023-02-11T05:55:49.203Z,-1.81
2023-02-11T05:56:22.750Z,-1.81
2023-02-11T05:56:56.211Z,-1.77
2023-02-11T05:57:29.658Z,-1.75
2023-02-11T05:58:03.332Z,-1.75
2023-02-11T05:58:36.876Z,-1.78
2023-02-11T05:59:13.692Z,-1.78
2023-02-11T05:59:47.150Z,-1.76
2023-02-11T06:00:20.849Z,-1.70
2023-02-11T06:00:54.641Z,-1.61
2023-02-11T06:01:28.244Z,-1.72
2023-02-11T06:02:02.388Z,-1.72
2023-02-11T06:02:36.173Z,-1.72
2023-02-11T06:03:10.063Z,-1.70
2023-02-11T06:03:43.731Z,-1.68
2023-02-11T06:04:17.189Z,-1.69
2023-02-11T06:04:50.681Z,-1.59
2023-02-11T06:05:26.220Z,-1.48
2023-02-11T06:05:59.773Z,-1.53
2023-02-11T06:06:33.328Z,-1.54
2023-02-11T06:07:06.761Z,-1.57
2023-02-11T06:07:40.140Z,-1.52
2023-02-11T06:08:13.702Z,-1.47
2023-02-11T06:08:47.172Z,-1.51
2023-02-11T06:09:20.700Z,-1.58
2023-02-11T06:09:54.251Z,-1.60
2023-02-11T06:10:27.774Z,-1.56
2023-02-11T06:11:01.242Z,-1.46
2023-02-11T06:11:34.922Z,-1.51
2023-02-11T06:12:08.364Z,-1.53
2023-02-11T06:12:41.840Z,-1.57
2023-02-11T06:13:15.406Z,-1.55
2023-02-11T06:13:48.889Z,-1.52
2023-02-11T06:14:22.385Z,-1.52
2023-02-11T06:14:58.474Z,-1.54
2023-02-11T06:15:31.952Z,-1.57
2023-02-11T06:16:05.825Z,-1.55
2023-02-11T06:16:39.288Z,-1.57
2023-02-11T06:17:15.543Z,-1.53
2023-02-11T06:17:49.213Z,-1.50
2023-02-11T06:18:22.545Z,-1.47
2023-02-11T06:18:56.032Z,-1.48
2023-02-11T06:19:29.498Z,-1.48
2023-02-11T06:20:05.075Z,-1.45
2023-02-11T06:20:41.094Z,-1.46
2023-02-11T06:21:14.611Z,-1.46
2023-02-11T06:21:48.084Z,-1.36
2023-02-11T06:22:21.462Z,-1.46
2023-02-11T06:22:55.388Z,-1.46
2023-02-11T06:23:30.450Z,-1.45
2023-02-11T06:24:04.585Z,-1.41
2023-02-11T06:24:59.978Z,-1.26
2023-02-11T06:25:31.366Z,-1.35
2023-02-11T06:26:07.252Z,-1.34
2023-02-11T06:26:40.810Z,-1.23
2023-02-11T06:27:14.267Z,-1.21
2023-02-11T06:27:47.667Z,-1.24
2023-02-11T06:28:21.101Z,-1.29
2023-02-11T06:28:54.628Z,-1.29
2023-02-11T06:29:28.245Z,-1.29
2023-02-11T06:30:01.715Z,-1.27
2023-02-11T06:30:37.710Z,-1.28
2023-02-11T06:31:12.036Z,-1.26
2023-02-11T06:31:45.660Z,-1.26
2023-02-11T06:32:39.508Z,-1.23
2023-02-11T06:33:13.391Z,-1.25
2023-02-11T06:33:46.852Z,-1.26
2023-02-11T06:34:20.282Z,-1.21
2023-02-11T06:34:53.683Z,-1.20
2023-02-11T06:35:27.253Z,-1.23
2023-02-11T06:36:01.356Z,-1.17
2023-02-11T06:36:35.587Z,-1.19
2023-02-11T06:37:08.992Z,-1.21
2023-02-11T06:37:43.035Z,-1.20
2023-02-11T06:38:16.658Z,-1.12
2023-02-11T06:38:50.547Z,-1.12
2023-02-11T06:39:24.065Z,-1.05
2023-02-11T06:39:57.749Z,-1.03
2023-02-11T06:40:31.200Z,-1.05
2023-02-11T06:41:04.890Z,-1.05
2023-02-11T06:41:38.372Z,-1.13
2023-02-11T06:42:11.941Z,-1.06
2023-02-11T06:42:45.574Z,-1.01
2023-02-11T06:43:19.002Z,-0.91
2023-02-11T06:43:53.489Z,-0.89
2023-02-11T06:44:27.077Z,-0.86
2023-02-11T06:45:00.481Z,-0.88
2023-02-11T06:45:34.078Z,-0.79
2023-02-11T06:46:08.710Z,-0.87
2023-02-11T06:46:42.172Z,-0.91
2023-02-11T06:47:15.849Z,-0.92
2023-02-11T06:47:52.889Z,-0.92
2023-02-11T06:48:26.484Z,-0.89
2023-02-11T06:48:59.917Z,-0.88
2023-02-11T06:49:33.444Z,-0.78
2023-02-11T06:50:08.685Z,-0.71
2023-02-11T06:50:42.055Z,-0.74
2023-02-11T06:51:16.011Z,-0.76
2023-02-11T06:51:49.426Z,-0.80
2023-02-11T06:52:23.116Z,-0.82
2023-02-11T06:52:56.681Z,-0.83
2023-02-11T06:53:30.086Z,-0.76
2023-02-11T06:54:06.481Z,-0.77
2023-02-11T06:54:39.931Z,-0.74
2023-02-11T06:55:13.747Z,-0.78
2023-02-11T06:55:47.171Z,-0.74
2023-02-11T06:56:24.743Z,-0.64
2023-02-11T06:56:58.223Z,-0.65
2023-02-11T06:57:32.610Z,-0.61
2023-02-11T06:58:06.150Z,-0.58
2023-02-11T06:58:40.099Z,-0.61
2023-02-11T06:59:18.854Z,-0.59
2023-02-11T06:59:52.335Z,-0.57
2023-02-11T07:00:26.836Z,-0.47
2023-02-11T07:01:00.399Z,-0.42
2023-02-11T07:01:33.849Z,-0.36
2023-02-11T07:02:09.257Z,-0.40
2023-02-11T07:02:42.728Z,-0.51
2023-02-11T07:03:16.204Z,-0.51
2023-02-11T07:03:50.708Z,-0.57
2023-02-11T07:04:24.083Z,-0.52
2023-02-11T07:04:57.576Z,-0.50
2023-02-11T07:05:31.092Z,-0.51
2023-02-11T07:06:05.890Z,-0.54
2023-02-11T07:06:42.864Z,-0.54
2023-02-11T07:07:19.978Z,-0.53
2023-02-11T07:07:53.765Z,-0.65
2023-02-11T07:08:27.596Z,-0.53
2023-02-11T07:09:01.171Z,-0.52
2023-02-11T07:09:34.908Z,-0.50
2023-02-11T07:10:08.698Z,-0.49
2023-02-11T07:10:42.310Z,-0.50
2023-02-11T07:11:21.638Z,-0.42
2023-02-11T07:11:55.085Z,-0.41
2023-02-11T07:12:28.450Z,-0.44
2023-02-11T07:13:02.367Z,-0.42
2023-02-11T07:13:36.265Z,-0.47
2023-02-11T07:14:10.826Z,-0.45
2023-02-11T07:14:44.513Z,-0.42
2023-02-11T07:15:18.282Z,-0.39
2023-02-11T07:15:52.355Z,-0.34
2023-02-11T07:16:26.635Z,-0.35
2023-02-11T07:17:00.046Z,-0.33
2023-02-11T07:17:35.755Z,-0.23
2023-02-11T07:18:09.275Z,-0.17
2023-02-11T07:18:43.212Z,-0.21
2023-02-11T07:19:17.256Z,-0.22
2023-02-11T07:19:50.858Z,-0.10
2023-02-11T07:20:24.636Z,-0.12
2023-02-11T07:20:58.134Z,-0.14
2023-02-11T07:21:31.694Z,-0.10
2023-02-11T07:22:05.212Z,-0.18
2023-02-11T07:22:38.770Z,-0.23
2023-02-11T07:23:12.319Z,-0.23
2023-02-11T07:23:46.552Z,-0.23
2023-02-11T07:24:20.054Z,-0.20
2023-02-11T07:24:53.624Z,-0.18
2023-02-11T07:25:27.036Z,-0.19
2023-02-11T07:26:09.045Z,-0.15
2023-02-11T07:26:42.631Z,-0.13
2023-02-11T07:27:16.209Z,-0.09
2023-02-11T07:27:50.486Z,-0.10
2023-02-11T07:28:23.996Z,-0.10
2023-02-11T07:28:57.524Z,-0.05
2023-02-11T07:29:31.083Z,-0.05
2023-02-11T07:30:07.244Z,-0.05
2023-02-11T07:30:40.996Z,-0.09
2023-02-11T07:31:20.438Z,-0.07
2023-02-11T07:31:53.956Z,-0.03
2023-02-11T07:32:27.500Z,-0.02
2023-02-11T07:33:00.947Z,-0.04
2023-02-11T07:33:35.069Z,0.02
2023-02-11T07:34:10.350Z,0.01
2023-02-11T07:34:43.760Z,-0.04
2023-02-11T07:35:17.226Z,-0.06
2023-02-11T07:35:50.771Z,0.01
2023-02-11T07:36:24.695Z,-0.01
2023-02-11T07:36:58.488Z,-0.05
2023-02-11T07:37:34.651Z,-0.07
2023-02-11T07:38:08.096Z,-0.04
2023-02-11T07:38:42.120Z,-0.04
2023-02-11T07:39:15.651Z,-0.03
2023-02-11T07:39:49.138Z,0.00
2023-02-11T07:40:22.662Z,0.02
2023-02-11T07:41:00.565Z,0.02
2023-02-11T07:41:37.706Z,0.03
2023-02-11T07:42:11.604Z,0.03
2023-02-11T07:42:45.139Z,0.06
2023-02-11T07:43:18.612Z,0.08
2023-02-11T07:43:52.693Z,0.04
2023-02-11T07:44:26.384Z,0.09
2023-02-11T07:44:59.807Z,0.08
2023-02-11T07:45:33.365Z,0.10
2023-02-11T07:46:14.915Z,0.09
2023-02-11T07:46:49.672Z,0.12
2023-02-11T07:47:23.415Z,0.17
2023-02-11T07:47:56.941Z,0.18
2023-02-11T07:48:30.400Z,0.24
2023-02-11T07:49:03.990Z,0.29
2023-02-11T07:49:37.677Z,0.30
2023-02-11T07:50:12.139Z,0.32
2023-02-11T07:50:45.795Z,0.41
2023-02-11T07:51:21.418Z,0.43
2023-02-11T07:51:54.907Z,0.37
2023-02-11T07:52:31.814Z,0.35
2023-02-11T07:53:05.496Z,0.37
2023-02-11T07:53:39.139Z,0.35
2023-02-11T07:54:12.726Z,0.35